Time;durP1;ratioP1;P1;durP2;ratioP2;P2;SDS_P1;SDS_P2;PMS_P1;PMS_P2;Temp;Humidity;BMP_temperature;BMP_pressure;BME280_temperature;BME280_humidity;BME280_pressure;Samples;Min_cycle;Max_cycle;Signal;HPM_P1;HPM_P2
2020/12/12 00:01:17;;;;;;;8.20;4.78;;;;;;;0.08;82.75;95180.05;1724175;81;21152;-86
2020/12/12 00:03:43;;;;;;;7.55;4.25;;;;;;;0.05;82.92;95172.69;1707115;82;21141;-86
2020/12/12 00:06:09;;;;;;;7.17;4.87;;;;;;;0.08;82.89;95174.13;1729930;82;21374;-86
2020/12/12 00:08:36;;;;;;;6.78;4.53;;;;;;;0.08;83.02;95177.97;1736909;82;21121;-86
2020/12/12 00:11:02;;;;;;;5.62;4.28;;;;;;;0.10;83.15;95175.59;1754290;80;21134;-86
2020/12/12 00:13:29;;;;;;;5.90;4.55;;;;;;;0.11;82.88;95170.81;1759310;81;21113;-86
2020/12/12 00:15:55;;;;;;;6.37;4.72;;;;;;;0.13;82.81;95171.94;1737812;82;21142;-87
2020/12/12 00:18:21;;;;;;;7.67;4.55;;;;;;;0.11;82.86;95172.09;1754363;80;21102;-86
2020/12/12 00:20:47;;;;;;;6.70;4.35;;;;;;;0.09;82.86;95169.35;1754869;81;21113;-86
2020/12/12 00:23:13;;;;;;;7.75;5.00;;;;;;;0.12;82.97;95176.72;1743045;81;21534;-86
2020/12/12 00:25:39;;;;;;;8.35;5.28;;;;;;;0.13;83.03;95177.05;1757383;81;21239;-86
2020/12/12 00:28:05;;;;;;;6.37;4.80;;;;;;;0.15;82.65;95177.22;1730200;81;21261;-86
2020/12/12 00:30:31;;;;;;;6.40;4.62;;;;;;;0.15;82.85;95173.39;1757643;80;21127;-86
2020/12/12 00:32:58;;;;;;;7.17;4.35;;;;;;;0.13;82.77;95166.34;1747102;81;21420;-86
2020/12/12 00:35:24;;;;;;;4.65;3.83;;;;;;;0.12;82.62;95169.05;1744562;81;21121;-86
2020/12/12 00:37:50;;;;;;;5.00;3.72;;;;;;;0.10;82.67;95171.76;1759858;80;21114;-86
2020/12/12 00:40:15;;;;;;;6.47;4.22;;;;;;;0.09;82.76;95175.27;1768974;81;21161;-86
2020/12/12 00:42:42;;;;;;;5.70;3.77;;;;;;;0.07;82.84;95175.89;1749957;81;21682;-86
2020/12/12 00:45:08;;;;;;;6.50;4.03;;;;;;;0.07;82.98;95177.64;1741349;81;21093;-86
2020/12/12 00:47:34;;;;;;;4.72;3.55;;;;;;;0.08;82.89;95174.94;1734754;81;21252;-86
2020/12/12 00:50:00;;;;;;;6.60;3.85;;;;;;;0.07;82.95;95172.53;1763516;81;21525;-86
2020/12/12 00:52:26;;;;;;;5.80;4.15;;;;;;;0.12;82.99;95180.55;1753475;81;22104;-86
2020/12/12 00:54:52;;;;;;;6.10;4.28;;;;;;;0.15;83.16;95178.50;1750605;81;21106;-85
2020/12/12 00:57:18;;;;;;;4.87;3.98;;;;;;;0.16;83.01;95180.58;1770554;81;21236;-87
2020/12/12 00:59:44;;;;;;;5.87;3.65;;;;;;;0.15;82.98;95182.33;1751435;81;21110;-86
2020/12/12 01:02:12;;;;;;;6.60;4.00;;;;;;;0.17;82.95;95181.73;1718665;82;21344;-86
2020/12/12 01:04:38;;;;;;;5.12;3.52;;;;;;;0.19;82.92;95184.14;1745612;81;21734;-86
2020/12/12 01:07:04;;;;;;;5.33;3.65;;;;;;;0.19;83.00;95177.27;1746603;81;21116;-87
2020/12/12 01:09:30;;;;;;;3.92;2.83;;;;;;;0.18;83.03;95182.06;1741224;81;21284;-86
2020/12/12 01:11:56;;;;;;;3.77;2.72;;;;;;;0.19;83.02;95171.36;1755747;81;21121;-87
2020/12/12 01:14:23;;;;;;;4.00;2.95;;;;;;;0.18;82.87;95176.95;1752045;81;21109;-87
2020/12/12 01:16:49;;;;;;;3.92;3.40;;;;;;;0.17;83.04;95172.80;1720849;81;21339;-86
2020/12/12 01:19:15;;;;;;;3.92;3.47;;;;;;;0.22;83.18;95174.89;1721068;81;21234;-87
2020/12/12 01:21:41;;;;;;;3.80;3.37;;;;;;;0.22;83.25;95173.62;1743134;81;21335;-87
2020/12/12 01:24:08;;;;;;;5.12;3.40;;;;;;;0.22;83.20;95162.92;1753812;81;21904;-86
2020/12/12 01:26:34;;;;;;;5.90;3.10;;;;;;;0.22;83.16;95164.20;1747678;81;21346;-86
2020/12/12 01:29:01;;;;;;;6.30;3.10;;;;;;;0.27;83.32;95163.75;1745418;81;21133;-86
2020/12/12 01:31:27;;;;;;;4.47;3.50;;;;;;;0.28;83.27;95158.97;1751367;81;21326;-86
2020/12/12 01:33:53;;;;;;;4.30;3.47;;;;;;;0.27;83.27;95159.92;1748187;81;21126;-86
2020/12/12 01:36:19;;;;;;;4.55;3.12;;;;;;;0.27;83.30;95157.36;1753020;81;21118;-86
2020/12/12 01:38:46;;;;;;;3.83;3.02;;;;;;;0.28;83.35;95156.41;1750870;81;21260;-86
2020/12/12 01:41:12;;;;;;;4.60;3.25;;;;;;;0.28;83.31;95156.41;1752950;81;21133;-86
2020/12/12 01:43:38;;;;;;;4.33;2.90;;;;;;;0.31;83.35;95148.45;1754423;81;21973;-86
2020/12/12 01:46:04;;;;;;;3.70;3.37;;;;;;;0.34;83.49;95148.17;1742084;81;21117;-86
2020/12/12 01:48:30;;;;;;;6.05;3.12;;;;;;;0.38;83.47;95153.78;1738174;81;21090;-86
2020/12/12 01:50:57;;;;;;;3.37;2.72;;;;;;;0.42;83.46;95152.05;1748360;81;21391;-86
2020/12/12 01:53:26;;;;;;;8.65;5.50;;;;;;;0.47;83.43;95149.84;1749165;81;21132;-86
2020/12/12 01:55:50;;;;;;;17.80;12.55;;;;;;;0.53;83.33;95160.76;1741629;81;21112;-86
2020/12/12 01:58:16;;;;;;;26.73;17.00;;;;;;;0.53;82.83;95153.09;1751338;81;21351;-86
2020/12/12 02:00:43;;;;;;;26.42;17.62;;;;;;;0.47;82.67;95149.84;1760628;81;21125;-86
2020/12/12 02:03:10;;;;;;;23.35;15.05;;;;;;;0.47;82.75;95152.39;1756318;81;21173;-87
2020/12/12 02:05:39;;;;;;;23.80;15.43;;;;;;;0.46;82.77;95145.67;1755264;81;21118;-86
2020/12/12 02:08:11;;;;;;;18.95;13.03;;;;;;;0.54;82.86;95141.11;1745518;81;21209;-86
2020/12/12 02:10:40;;;;;;;6.00;4.40;;;;;;;0.58;82.83;95139.38;1750433;81;21411;-86
2020/12/12 02:13:07;;;;;;;3.47;2.50;;;;;;;0.59;82.94;95137.14;1741583;81;21129;-86
2020/12/12 02:15:34;;;;;;;3.75;2.75;;;;;;;0.59;83.08;95136.34;1737893;81;21349;-86
2020/12/12 02:18:01;;;;;;;4.78;2.35;;;;;;;0.62;83.35;95134.75;1738498;81;21120;-85
2020/12/12 02:20:27;;;;;;;4.33;2.70;;;;;;;0.71;83.32;95124.91;1734625;81;21128;-86
2020/12/12 02:22:54;;;;;;;4.22;2.80;;;;;;;0.74;83.25;95124.61;1740345;81;21115;-86
2020/12/12 02:25:20;;;;;;;3.83;2.95;;;;;;;0.79;83.32;95127.50;1746004;81;21332;-86
2020/12/12 02:27:49;;;;;;;4.65;2.55;;;;;;;0.82;83.40;95122.11;1737866;81;21352;-87
2020/12/12 02:30:14;;;;;;;3.12;2.77;;;;;;;0.83;83.39;95124.98;1741178;81;21136;-85
2020/12/12 02:32:40;;;;;;;3.33;2.67;;;;;;;0.87;83.42;95114.77;1737972;81;21122;-85
2020/12/12 02:35:06;;;;;;;3.15;2.60;;;;;;;0.97;83.38;95121.50;1745848;81;21138;-86
2020/12/12 02:37:32;;;;;;;3.27;2.92;;;;;;;1.08;83.42;95113.56;1739821;81;21130;-87
2020/12/12 02:39:58;;;;;;;5.47;3.58;;;;;;;1.16;83.37;95116.97;1738234;81;21269;-87
2020/12/12 02:42:24;;;;;;;2.90;2.40;;;;;;;1.21;83.30;95112.66;1744813;81;21387;-86
2020/12/12 02:44:52;;;;;;;2.85;2.35;;;;;;;1.20;83.12;95107.22;1742510;81;21232;-85
2020/12/12 02:47:18;;;;;;;5.05;2.50;;;;;;;1.15;83.13;95105.14;1741162;81;21128;-85
2020/12/12 02:49:45;;;;;;;2.92;2.55;;;;;;;1.18;83.05;95100.98;1744461;81;21262;-86
2020/12/12 02:52:11;;;;;;;3.02;2.50;;;;;;;1.18;83.04;95099.70;1747986;81;21106;-86
2020/12/12 02:54:37;;;;;;;2.40;2.20;;;;;;;1.20;83.20;95095.70;1740302;81;21117;-86
2020/12/12 02:57:03;;;;;;;2.30;2.10;;;;;;;1.24;83.19;95094.91;1743699;81;21113;-87
2020/12/12 02:59:29;;;;;;;3.35;2.40;;;;;;;1.27;83.24;95103.55;1724432;81;21102;-85
2020/12/12 03:01:55;;;;;;;3.60;2.65;;;;;;;1.28;83.23;95094.91;1738297;81;21143;-86
2020/12/12 03:04:22;;;;;;;3.95;2.67;;;;;;;1.29;83.17;95094.75;1739473;81;21120;-86
2020/12/12 03:06:48;;;;;;;3.92;2.70;;;;;;;1.30;83.06;95092.55;1738332;81;21095;-86
2020/12/12 03:09:20;;;;;;;5.00;3.00;;;;;;;1.31;83.05;95083.11;1740240;81;21228;-85
2020/12/12 03:11:47;;;;;;;3.92;2.67;;;;;;;1.38;83.06;95084.08;1740121;81;21097;-85
2020/12/12 03:14:13;;;;;;;6.20;3.67;;;;;;;1.41;82.94;95092.72;1749804;81;21323;-86
2020/12/12 03:16:39;;;;;;;4.10;3.22;;;;;;;1.40;82.98;95095.75;1749467;81;21295;-86
2020/12/12 03:19:05;;;;;;;6.28;3.80;;;;;;;1.46;82.92;95086.64;1747607;81;21587;-87
2020/12/12 03:21:31;;;;;;;3.75;3.10;;;;;;;1.47;82.83;95093.39;1746716;81;21133;-86
2020/12/12 03:23:57;;;;;;;4.83;3.35;;;;;;;1.49;82.77;95095.30;1746981;81;21084;-85
2020/12/12 03:26:23;;;;;;;7.03;3.83;;;;;;;1.53;82.61;95094.03;1753367;81;21355;-86
2020/12/12 03:28:51;;;;;;;6.15;4.08;;;;;;;1.49;82.50;95090.19;1750876;81;21113;-86
2020/12/12 03:31:17;;;;;;;5.00;4.00;;;;;;;1.50;82.59;95091.78;1751706;81;21368;-86
2020/12/12 03:33:44;;;;;;;5.08;3.72;;;;;;;1.47;82.59;95092.11;1752578;81;21224;-86
2020/12/12 03:36:10;;;;;;;7.83;3.90;;;;;;;1.48;82.70;95091.14;1746749;81;21498;-87
2020/12/12 03:38:36;;;;;;;6.33;3.60;;;;;;;1.49;82.58;95093.55;1742936;81;21128;-85
2020/12/12 03:41:02;;;;;;;5.20;3.35;;;;;;;1.50;82.55;95086.19;1746089;81;21308;-86
2020/12/12 03:43:29;;;;;;;4.37;3.40;;;;;;;1.53;82.39;95095.78;1752577;81;21406;-86
2020/12/12 03:45:55;;;;;;;5.60;3.98;;;;;;;1.52;82.41;95095.47;1753487;81;21108;-86
2020/12/12 03:48:21;;;;;;;4.47;3.58;;;;;;;1.47;82.43;95091.63;1751524;81;21777;-87
2020/12/12 03:50:47;;;;;;;6.30;3.60;;;;;;;1.46;82.58;95091.75;1744297;81;21132;-85
2020/12/12 03:53:13;;;;;;;4.67;3.62;;;;;;;1.48;82.62;95094.51;1748645;81;21268;-86
2020/12/12 03:55:39;;;;;;;4.50;3.40;;;;;;;1.50;82.52;95093.87;1744652;81;21125;-85
2020/12/12 03:58:05;;;;;;;5.78;3.45;;;;;;;1.54;82.38;95093.06;1746878;81;21612;-86
2020/12/12 04:00:31;;;;;;;4.78;4.00;;;;;;;1.53;82.25;95091.95;1749921;81;21126;-87
2020/12/12 04:02:57;;;;;;;5.47;4.03;;;;;;;1.52;82.37;95084.75;1748400;81;21234;-86
2020/12/12 04:05:23;;;;;;;4.30;3.25;;;;;;;1.49;82.36;95095.30;1753281;81;21368;-85
2020/12/12 04:07:49;;;;;;;5.12;3.83;;;;;;;1.45;82.51;95090.95;1745861;81;21112;-86
2020/12/12 04:10:15;;;;;;;5.40;4.12;;;;;;;1.45;82.50;95096.55;1750698;81;21110;-86
2020/12/12 04:12:41;;;;;;;5.90;4.37;;;;;;;1.46;82.52;95091.75;1747392;81;21096;-85
2020/12/12 04:15:07;;;;;;;4.85;3.85;;;;;;;1.48;82.42;95093.23;1744121;81;21116;-86
2020/12/12 04:17:33;;;;;;;5.08;3.40;;;;;;;1.47;82.42;95086.98;1743910;81;21114;-86
2020/12/12 04:19:59;;;;;;;4.90;3.50;;;;;;;1.45;82.46;95091.44;1749582;81;21266;-86
2020/12/12 04:22:25;;;;;;;6.28;3.62;;;;;;;1.41;82.56;95087.11;1758289;81;21485;-86
2020/12/12 04:24:51;;;;;;;5.03;3.35;;;;;;;1.39;82.59;95086.48;1749371;81;21088;-85
2020/12/12 04:27:17;;;;;;;4.00;3.35;;;;;;;1.40;82.61;95084.72;1748503;81;21392;-86
2020/12/12 04:29:43;;;;;;;4.85;3.37;;;;;;;1.43;82.60;95083.12;1746739;81;21280;-86
2020/12/12 04:32:09;;;;;;;5.00;3.67;;;;;;;1.44;82.56;95076.56;1746478;81;21109;-87
2020/12/12 04:34:35;;;;;;;5.20;4.67;;;;;;;1.46;82.54;95072.56;1754528;81;21080;-86
2020/12/12 04:37:01;;;;;;;4.12;3.33;;;;;;;1.37;82.56;95063.28;1743044;81;21346;-86
2020/12/12 04:39:28;;;;;;;4.70;3.40;;;;;;;1.39;82.55;95071.59;1757827;81;21137;-86
2020/12/12 04:41:54;;;;;;;6.33;4.12;;;;;;;1.41;82.47;95079.92;1753565;81;21129;-85
2020/12/12 04:44:20;;;;;;;5.97;4.90;;;;;;;1.39;82.27;95079.28;1740911;81;21123;-86
2020/12/12 04:46:47;;;;;;;23.25;14.78;;;;;;;1.37;82.17;95084.55;1747049;81;21254;-86
2020/12/12 04:49:13;;;;;;;18.70;12.45;;;;;;;1.37;82.02;95082.47;1747727;81;21101;-86
2020/12/12 04:51:39;;;;;;;17.48;11.57;;;;;;;1.38;82.04;95088.72;1748281;81;21125;-86
2020/12/12 04:54:05;;;;;;;19.60;11.88;;;;;;;1.38;81.98;95089.20;1725118;81;21093;-86
2020/12/12 04:56:34;;;;;;;17.40;11.08;;;;;;;1.37;81.88;95087.59;1749421;81;21136;-86
2020/12/12 04:59:01;;;;;;;18.27;11.73;;;;;;;1.32;81.70;95080.39;1744541;81;21141;-86
2020/12/12 05:01:27;;;;;;;14.80;10.48;;;;;;;1.30;81.65;95086.59;1748186;81;21388;-86
2020/12/12 05:03:53;;;;;;;15.78;9.90;;;;;;;1.31;81.62;95093.34;1746908;81;21120;-86
2020/12/12 05:06:19;;;;;;;7.90;5.05;;;;;;;1.33;81.68;95082.47;1747813;81;21236;-85
2020/12/12 05:08:45;;;;;;;6.37;4.72;;;;;;;1.30;81.55;95087.43;1755846;81;21130;-85
2020/12/12 05:11:11;;;;;;;5.22;4.00;;;;;;;1.26;81.63;95090.44;1742204;81;21110;-86
2020/12/12 05:13:37;;;;;;;6.75;5.45;;;;;;;1.19;81.53;95084.67;1742081;81;21116;-86
2020/12/12 05:16:04;;;;;;;5.50;3.95;;;;;;;1.20;81.64;95082.91;1758316;81;21350;-86
2020/12/12 05:18:30;;;;;;;5.40;4.10;;;;;;;1.20;81.53;95091.39;1753101;81;21484;-85
2020/12/12 05:20:56;;;;;;;6.35;4.00;;;;;;;1.19;81.59;95083.39;1751448;81;21140;-86
2020/12/12 05:23:24;;;;;;;8.88;5.78;;;;;;;1.18;81.59;95079.71;1747911;81;21125;-86
2020/12/12 05:25:51;;;;;;;7.45;3.87;;;;;;;1.18;81.74;95087.39;1748142;81;21134;-85
2020/12/12 05:28:20;;;;;;;5.05;4.40;;;;;;;1.17;81.66;95086.59;1754843;81;21119;-86
2020/12/12 05:30:50;;;;;;;4.62;3.55;;;;;;;1.15;81.66;95088.50;1716152;81;21385;-86
2020/12/12 05:33:19;;;;;;;4.25;3.80;;;;;;;1.14;81.73;95086.11;1751955;81;21128;-85
2020/12/12 05:35:47;;;;;;;6.80;3.58;;;;;;;1.15;81.88;95087.70;1748265;81;21246;-86
2020/12/12 05:38:13;;;;;;;6.20;4.35;;;;;;;1.15;82.02;95084.67;1750409;81;21142;-85
2020/12/12 05:40:44;;;;;;;5.87;3.80;;;;;;;1.15;82.13;95087.23;1756764;81;21117;-86
2020/12/12 05:43:12;;;;;;;6.97;3.95;;;;;;;1.15;82.16;95083.39;1755698;81;21137;-85
2020/12/12 05:45:39;;;;;;;5.87;4.55;;;;;;;1.16;82.16;95080.34;1747627;81;21130;-85
2020/12/12 05:48:07;;;;;;;7.08;4.58;;;;;;;1.18;82.16;95080.99;1752330;81;21097;-86
2020/12/12 05:50:33;;;;;;;5.58;4.78;;;;;;;1.22;82.23;95085.31;1749759;81;21150;-85
2020/12/12 05:52:59;;;;;;;6.20;4.37;;;;;;;1.22;82.34;95086.11;1728749;81;21356;-85
2020/12/12 05:55:30;;;;;;;5.12;4.30;;;;;;;1.23;82.38;95085.63;1745607;81;21248;-85
2020/12/12 05:57:57;;;;;;;4.80;4.10;;;;;;;1.24;82.46;95089.80;1744231;81;21138;-85
2020/12/12 06:00:24;;;;;;;5.10;3.85;;;;;;;1.26;82.47;95083.56;1749947;81;21521;-86
2020/12/12 06:03:13;;;;;;;5.83;3.60;;;;;;;1.28;82.40;95084.68;1753744;81;21125;-86
2020/12/12 06:05:39;;;;;;;4.83;3.50;;;;;;;1.34;82.47;95081.03;1751026;81;21312;-85
2020/12/12 06:08:06;;;;;;;3.70;3.15;;;;;;;1.40;82.35;95084.23;1753241;81;21137;-86
2020/12/12 06:10:33;;;;;;;4.90;3.45;;;;;;;1.41;82.31;95079.92;1751387;81;21130;-85
2020/12/12 06:13:02;;;;;;;5.95;3.55;;;;;;;1.39;82.32;95087.75;1754492;81;21117;-86
2020/12/12 06:15:39;;;;;;;3.98;3.40;;;;;;;1.41;82.33;95088.88;1754364;81;21117;-86
2020/12/12 06:18:38;;;;;;;4.20;3.15;;;;;;;1.45;82.30;95086.31;1741843;81;21094;-85
2020/12/12 06:21:07;;;;;;;4.78;2.90;;;;;;;1.51;82.19;95086.98;1735908;81;21332;-85
2020/12/12 06:23:38;;;;;;;4.50;2.85;;;;;;;1.52;81.96;95082.19;1741390;81;21114;-85
2020/12/12 06:26:05;;;;;;;3.30;2.72;;;;;;;1.54;81.96;95084.59;1749724;81;21114;-85
2020/12/12 06:28:32;;;;;;;4.08;3.33;;;;;;;1.55;82.02;95083.63;1759537;81;21121;-85
2020/12/12 06:30:58;;;;;;;4.50;2.45;;;;;;;1.53;81.91;95084.27;1764716;81;21309;-85
2020/12/12 06:33:24;;;;;;;4.42;3.10;;;;;;;1.54;81.88;95087.14;1750845;81;21137;-85
2020/12/12 06:35:50;;;;;;;2.90;2.62;;;;;;;1.55;81.82;95078.03;1764777;81;21321;-86
2020/12/12 06:38:28;;;;;;;3.62;2.50;;;;;;;1.62;81.79;95083.30;1763777;81;21086;-86
2020/12/12 06:40:58;;;;;;;5.42;4.22;;;;;;;1.65;81.67;95087.66;1757360;81;21109;-86
2020/12/12 06:43:36;;;;;;;6.22;3.72;;;;;;;1.65;81.32;95085.57;1725334;82;21129;-85
2020/12/12 06:46:05;;;;;;;3.35;2.37;;;;;;;1.78;81.39;95089.72;1749947;80;21131;-86
2020/12/12 06:48:32;;;;;;;2.90;2.60;;;;;;;1.80;81.28;95094.23;1747618;81;21426;-86
2020/12/12 06:51:01;;;;;;;2.62;2.02;;;;;;;1.83;81.09;95089.27;1724535;81;21357;-86
2020/12/12 06:53:29;;;;;;;3.58;2.52;;;;;;;1.84;81.12;95089.59;1788253;78;21228;-86
2020/12/12 06:56:15;;;;;;;4.22;2.60;;;;;;;1.86;81.00;95092.78;1799740;78;21089;-85
2020/12/12 06:58:42;;;;;;;4.28;3.10;;;;;;;1.90;81.04;95094.06;1790415;78;21084;-87
2020/12/12 07:01:32;;;;;;;5.83;3.65;;;;;;;1.89;81.00;95098.38;1795949;79;21216;-85
2020/12/12 07:04:03;;;;;;;4.25;3.27;;;;;;;1.89;80.95;95100.14;1800349;79;21400;-85
2020/12/12 07:06:30;;;;;;;4.80;3.22;;;;;;;1.85;81.01;95095.03;1795945;79;21102;-86
2020/12/12 07:09:07;;;;;;;4.78;2.75;;;;;;;1.89;81.02;95105.27;1799057;79;21106;-85
2020/12/12 07:11:34;;;;;;;5.25;4.03;;;;;;;1.93;81.09;95108.63;1806176;79;21118;-85
2020/12/12 07:14:01;;;;;;;5.42;3.35;;;;;;;1.98;81.07;95105.60;1795693;78;21146;-86
2020/12/12 07:16:28;;;;;;;4.70;4.12;;;;;;;2.00;80.94;95107.05;1792715;79;21098;-85
2020/12/12 07:18:54;;;;;;;4.10;2.98;;;;;;;2.00;80.90;95102.40;1805512;79;21086;-85
2020/12/12 07:21:20;;;;;;;4.28;2.90;;;;;;;1.99;80.76;95111.84;1806560;79;21522;-86
2020/12/12 07:23:47;;;;;;;4.05;3.08;;;;;;;1.99;80.77;95111.84;1796178;78;21097;-85
2020/12/12 07:26:13;;;;;;;4.40;2.67;;;;;;;2.04;80.81;95113.44;1810387;78;21071;-86
2020/12/12 07:28:39;;;;;;;3.35;2.50;;;;;;;2.07;80.66;95115.67;1803815;78;21972;-85
2020/12/12 07:31:05;;;;;;;6.03;3.20;;;;;;;2.06;80.58;95109.44;1807168;79;21599;-86
2020/12/12 07:33:37;;;;;;;4.03;2.75;;;;;;;2.08;80.50;95108.79;1797942;78;21459;-86
2020/12/12 07:36:04;;;;;;;4.47;2.92;;;;;;;2.06;80.53;95115.36;1805018;79;21097;-86
2020/12/12 07:38:30;;;;;;;3.65;2.75;;;;;;;2.08;80.66;95115.20;1743797;82;21265;-86
2020/12/12 07:40:56;;;;;;;4.00;2.90;;;;;;;2.09;80.65;95117.59;1720116;82;21400;-87
2020/12/12 07:43:22;;;;;;;11.12;6.60;;;;;;;2.14;80.69;95125.30;1738026;80;21244;-86
2020/12/12 07:48:29;;;;;;;4.17;2.90;;;;;;;2.20;80.38;95120.33;1794656;78;21124;-87
2020/12/12 07:50:55;;;;;;;3.70;2.75;;;;;;;2.26;80.40;95125.28;1805361;78;21125;-86
2020/12/12 07:53:21;;;;;;;3.90;2.40;;;;;;;2.25;80.24;95123.68;1798742;78;21154;-86
2020/12/12 07:55:57;;;;;;;2.60;2.05;;;;;;;2.21;80.25;95127.05;1807868;78;21244;-86
2020/12/12 07:58:26;;;;;;;3.27;2.62;;;;;;;2.18;80.33;95128.66;1796396;78;21106;-86
2020/12/12 08:00:58;;;;;;;3.10;2.50;;;;;;;2.18;80.36;95128.66;1803513;79;21144;-86
2020/12/12 08:03:24;;;;;;;3.57;2.30;;;;;;;2.23;80.46;95123.84;1785106;79;22025;-86
2020/12/12 08:06:06;;;;;;;2.62;2.20;;;;;;;2.31;80.24;95129.46;1758947;81;21102;-86
2020/12/12 08:08:35;;;;;;;4.03;2.42;;;;;;;2.34;80.07;95135.06;1765410;80;21106;-86
2020/12/12 08:11:01;;;;;;;3.30;2.33;;;;;;;2.37;80.17;95132.17;1765913;80;21204;-86
2020/12/12 08:13:28;;;;;;;2.87;2.65;;;;;;;2.41;80.02;95134.72;1751474;80;21107;-86
2020/12/12 08:16:14;;;;;;;3.05;2.10;;;;;;;2.43;79.99;95136.32;1745361;81;21247;-86
2020/12/12 08:18:38;;;;;;;2.20;2.00;;;;;;;2.43;80.05;95136.32;1741046;81;21417;-86
2020/12/12 08:21:14;;;;;;;2.25;1.80;;;;;;;2.47;79.93;95135.86;1749267;81;21131;-87
2020/12/12 08:23:40;;;;;;;3.05;2.05;;;;;;;2.52;79.81;95140.01;1720928;81;22009;-86
2020/12/12 08:26:07;;;;;;;2.42;2.12;;;;;;;2.60;79.76;95140.47;1735713;81;21146;-86
2020/12/12 08:28:33;;;;;;;2.80;2.02;;;;;;;2.72;79.78;95146.86;1747979;81;21274;-87
2020/12/12 08:31:15;;;;;;;3.40;2.05;;;;;;;2.77;79.79;95142.55;1747078;81;21085;-87
2020/12/12 08:33:55;;;;;;;3.33;2.20;;;;;;;2.90;79.67;95136.40;1803538;77;22992;-85
2020/12/12 08:36:24;;;;;;;3.52;2.47;;;;;;;2.88;79.31;95136.56;1816798;78;21228;-86
2020/12/12 08:38:54;;;;;;;2.30;1.75;;;;;;;2.90;79.23;95141.53;1784181;78;21101;-84
2020/12/12 08:41:21;;;;;;;2.77;2.00;;;;;;;2.94;79.29;95142.34;1800384;78;21132;-85
2020/12/12 08:43:47;;;;;;;2.87;2.00;;;;;;;3.01;79.03;95147.12;1756484;80;21134;-87
2020/12/12 08:46:15;;;;;;;4.03;2.30;;;;;;;3.09;78.81;95148.88;1732971;81;21141;-84
2020/12/12 08:48:41;;;;;;;2.08;1.80;;;;;;;3.20;78.64;95138.71;1732402;81;21447;-86
2020/12/12 08:51:08;;;;;;;3.40;1.98;;;;;;;3.25;78.63;95143.69;1745091;81;21137;-86
2020/12/12 08:53:42;;;;;;;3.35;2.40;;;;;;;3.35;78.67;95145.23;1721900;81;21126;-86
2020/12/12 08:56:27;;;;;;;40.20;17.82;;;;;;;3.46;78.74;95154.66;1751369;81;21161;-85
2020/12/12 08:59:02;;;;;;;5.55;3.75;;;;;;;3.55;78.54;95155.41;1758498;80;21109;-85
2020/12/12 09:01:34;;;;;;;10.00;5.65;;;;;;;3.61;78.40;95160.69;1764175;80;21130;-85
2020/12/12 09:04:15;;;;;;;12.55;7.28;;;;;;;3.66;78.33;95160.17;1748732;80;21117;-84
2020/12/12 09:06:58;;;;;;;14.35;10.50;;;;;;;3.71;78.44;95162.23;1737186;80;21390;-85
2020/12/12 09:09:31;;;;;;;39.38;28.98;;;;;;;3.79;78.47;95160.91;1744685;80;21138;-86
2020/12/12 09:12:08;;;;;;;47.62;32.63;;;;;;;3.88;78.12;95167.10;1742794;80;21145;-85
2020/12/12 09:14:37;;;;;;;44.85;32.73;;;;;;;3.97;78.15;95168.36;1720794;81;21113;-85
2020/12/12 09:17:09;;;;;;;52.27;34.60;;;;;;;4.02;77.89;95166.86;1733342;81;21358;-84
2020/12/12 09:19:38;;;;;;;;;;;;;;;4.00;77.23;95167.52;1738000;81;21137;-84
2020/12/12 09:22:06;;;;;;;75.57;46.13;;;;;;;3.99;77.21;95165.92;1718047;82;20133;-86
2020/12/12 09:24:32;;;;;;;77.65;51.15;;;;;;;3.98;77.15;95172.52;1763944;81;21109;-86
2020/12/12 09:26:58;;;;;;;82.42;54.03;;;;;;;3.94;77.05;95162.28;1752871;81;21117;-85
2020/12/12 09:29:25;;;;;;;88.52;58.55;;;;;;;3.89;76.76;95162.28;1740710;81;21112;-87
2020/12/12 09:31:52;;;;;;;89.05;58.25;;;;;;;3.88;76.99;95166.30;1753798;81;21574;-88
2020/12/12 09:34:18;;;;;;;92.05;59.05;;;;;;;3.85;76.22;95160.22;1747782;81;21114;-88
2020/12/12 09:36:45;;;;;;;93.25;63.50;;;;;;;3.81;76.59;95160.26;1783565;79;21228;-85
2020/12/12 09:39:11;;;;;;;92.97;64.12;;;;;;;3.86;76.33;95162.63;1796935;79;21300;-84
2020/12/12 09:41:37;;;;;;;92.57;63.35;;;;;;;3.89;76.42;95162.77;1794633;78;21102;-83
2020/12/12 09:44:03;;;;;;;95.10;62.85;;;;;;;3.93;76.66;95154.25;1787680;79;21130;-86
2020/12/12 09:46:29;;;;;;;86.60;61.30;;;;;;;4.01;76.76;95156.75;1773728;79;21101;-85
2020/12/12 09:48:56;;;;;;;90.20;61.00;;;;;;;4.06;76.50;95153.98;1801167;79;21125;-85
2020/12/12 09:51:22;;;;;;;89.65;61.77;;;;;;;4.10;76.72;95146.26;1794866;79;21964;-86
2020/12/12 09:53:48;;;;;;;79.92;55.78;;;;;;;4.15;76.42;95149.59;1756984;80;21122;-86
2020/12/12 09:56:14;;;;;;;79.80;54.58;;;;;;;4.13;76.15;95148.48;1797087;78;21397;-84
2020/12/12 09:58:42;;;;;;;82.90;54.98;;;;;;;4.11;75.87;95145.77;1781354;79;21113;-86
2020/12/12 10:01:08;;;;;;;86.42;53.78;;;;;;;4.08;75.85;95141.78;1804434;79;21344;-86
2020/12/12 10:03:34;;;;;;;80.53;52.48;;;;;;;4.08;75.63;95139.70;1746714;79;21168;-87
2020/12/12 10:06:01;;;;;;;79.80;53.00;;;;;;;4.10;75.29;95139.83;1786983;79;21101;-89
2020/12/12 10:08:27;;;;;;;86.75;57.73;;;;;;;4.06;75.30;95136.47;1716032;80;21438;-87
2020/12/12 10:10:54;;;;;;;86.17;57.30;;;;;;;4.08;75.16;95140.49;1794172;79;21239;-87
2020/12/12 10:13:20;;;;;;;82.42;55.65;;;;;;;4.05;74.85;95142.58;1788245;79;21145;-86
2020/12/12 10:15:48;;;;;;;94.97;58.20;;;;;;;4.00;75.11;95146.96;1784520;79;21220;-88
2020/12/12 10:18:16;;;;;;;96.25;59.65;;;;;;;4.02;75.56;95145.50;1755041;80;21143;-89
2020/12/12 10:20:42;;;;;;;86.17;59.73;;;;;;;4.07;74.97;95147.89;1735265;82;21090;-86
2020/12/12 10:23:08;;;;;;;95.72;60.15;;;;;;;4.07;75.32;95150.95;1735060;82;21126;-87
2020/12/12 10:25:34;;;;;;;107.75;69.00;;;;;;;4.04;75.24;95151.27;1796801;79;21231;-87
2020/12/12 10:28:00;;;;;;;105.40;64.17;;;;;;;4.08;75.33;95149.49;1797466;79;21300;-87
2020/12/12 10:30:27;;;;;;;100.12;63.98;;;;;;;4.13;75.25;95157.48;1763318;80;21106;-87
2020/12/12 10:32:56;;;;;;;98.78;64.67;;;;;;;4.24;75.43;95152.92;1803245;78;21123;-87
2020/12/12 10:35:24;;;;;;;97.65;65.32;;;;;;;4.32;75.15;95157.50;1741205;81;21078;-87
2020/12/12 10:37:50;;;;;;;102.80;65.05;;;;;;;4.40;75.28;95159.22;1767455;80;21395;-89
2020/12/12 10:40:19;;;;;;;111.60;77.05;;;;;;;4.42;75.38;95163.70;1784832;80;21200;-86
2020/12/12 10:42:47;;;;;;;128.87;84.62;;;;;;;4.43;75.06;95153.23;1782950;80;21336;-88
2020/12/12 10:45:15;;;;;;;141.43;89.83;;;;;;;4.41;74.87;95156.47;1774122;80;21315;-87
2020/12/12 10:47:45;;;;;;;186.80;118.97;;;;;;;4.33;74.76;95159.09;1787295;80;21098;-87
2020/12/12 10:50:11;;;;;;;191.45;122.60;;;;;;;4.25;74.84;95159.66;1755906;80;21141;-87
2020/12/12 10:52:37;;;;;;;169.45;116.70;;;;;;;4.15;74.84;95165.81;1769058;79;21138;-87
2020/12/12 10:55:04;;;;;;;156.25;110.65;;;;;;;4.06;74.66;95161.69;1776091;80;21133;-88
2020/12/12 10:57:33;;;;;;;147.47;99.07;;;;;;;3.97;74.72;95166.58;1784317;80;21538;-89
2020/12/12 11:00:02;;;;;;;150.18;100.72;;;;;;;3.91;74.37;95165.98;1780702;79;21102;-87
2020/12/12 11:02:29;;;;;;;144.45;99.35;;;;;;;3.95;74.39;95169.02;1768327;79;21285;-88
2020/12/12 11:04:56;;;;;;;138.72;96.20;;;;;;;3.94;74.20;95169.50;1765104;80;21109;-88
2020/12/12 11:07:22;;;;;;;166.92;108.57;;;;;;;3.88;73.96;95174.81;1777567;80;21062;-87
2020/12/12 11:09:48;;;;;;;137.22;90.90;;;;;;;3.82;74.37;95172.13;1784972;80;21269;-88
2020/12/12 11:12:14;;;;;;;145.47;97.17;;;;;;;3.79;74.19;95172.48;1787425;80;21145;-88
2020/12/12 11:14:42;;;;;;;165.03;102.72;;;;;;;3.74;74.52;95169.59;1760197;80;21131;-88
2020/12/12 11:17:08;;;;;;;164.03;106.92;;;;;;;3.71;74.42;95171.22;1767128;79;21050;-89
2020/12/12 11:19:34;;;;;;;145.80;95.53;;;;;;;3.68;74.30;95165.14;1780250;80;21292;-88
2020/12/12 11:22:00;;;;;;;154.97;97.47;;;;;;;3.59;74.37;95172.11;1775870;79;21113;-88
2020/12/12 11:24:26;;;;;;;156.30;104.43;;;;;;;3.51;74.49;95176.78;1752612;80;21113;-88
2020/12/12 11:26:53;;;;;;;157.12;100.65;;;;;;;3.45;74.12;95172.81;1751042;80;21137;-89
2020/12/12 11:29:19;;;;;;;152.68;102.40;;;;;;;3.37;74.14;95179.24;1779407;79;21330;-88
2020/12/12 11:31:48;;;;;;;162.65;105.15;;;;;;;3.30;73.99;95173.50;1773010;79;21205;-90
2020/12/12 11:36:55;;;;;;;151.00;100.02;;;;;;;3.21;74.10;95169.34;1781051;80;21124;-90
2020/12/12 11:47:25;;;;;;;147.13;94.62;;;;;;;3.08;74.75;95164.41;1801784;78;21074;-86
2020/12/12 11:49:51;;;;;;;148.20;95.45;;;;;;;3.11;74.52;95162.83;1797487;78;21110;-89
2020/12/12 11:52:18;;;;;;;153.30;96.75;;;;;;;3.11;74.22;95162.34;1805740;78;21097;-87